Time;durP1;ratioP1;P1;durP2;ratioP2;P2;SDS_P1;SDS_P2;PMS_P1;PMS_P2;Temp;Humidity;BMP_temperature;BMP_pressure;BME280_temperature;BME280_humidity;BME280_pressure;Samples;Min_cycle;Max_cycle;Signal;HPM_P1;HPM_P2
2023/01/11 00:02:10;;;;;;;10.50;8.90;;;;;;;;;;102365;1337;44272;-48
2023/01/11 00:04:46;;;;;;;11.00;9.10;;;;;;;;;;102037;1343;44470;-48
2023/01/11 00:07:20;;;;;;;11.50;9.40;;;;;;;;;;102069;1342;39598;-48
2023/01/11 00:09:55;;;;;;;10.90;8.80;;;;;;;;;;102085;1342;41386;-49
2023/01/11 00:12:30;;;;;;;11.40;9.10;;;;;;;;;;102083;1343;44427;-47
2023/01/11 00:15:04;;;;;;;10.30;8.20;;;;;;;;;;102321;1337;43076;-49
2023/01/11 00:17:38;;;;;;;10.60;9.00;;;;;;;;;;102335;1337;39710;-49
2023/01/11 00:20:13;;;;;;;10.90;8.60;;;;;;;;;;102368;1337;41354;-46
2023/01/11 00:22:48;;;;;;;10.60;9.00;;;;;;;;;;102384;1337;44176;-44
2023/01/11 00:25:22;;;;;;;11.00;8.70;;;;;;;;;;101382;1343;921599;-45
2023/01/11 00:27:57;;;;;;;10.50;8.70;;;;;;;;;;102043;1343;39633;-49
2023/01/11 00:30:31;;;;;;;10.40;8.50;;;;;;;;;;102060;1343;42730;-45
2023/01/11 00:33:07;;;;;;;10.00;8.20;;;;;;;;;;102037;1343;44320;-46
2023/01/11 00:35:41;;;;;;;9.80;8.40;;;;;;;;;;102057;1342;48181;-46
2023/01/11 00:38:42;;;;;;;10.10;8.30;;;;;;;;;;102054;1343;39572;-48
2023/01/11 00:49:47;;;;;;;9.50;7.80;;;;;;;;;;102390;1337;40659;-46
2023/01/11 00:52:21;;;;;;;9.60;8.40;;;;;;;;;;102403;1337;41125;-45
2023/01/11 00:54:55;;;;;;;9.80;8.00;;;;;;;;;;102165;1337;45441;-46
2023/01/11 00:57:29;;;;;;;9.60;8.30;;;;;;;;;;102077;1343;43002;-47
2023/01/11 01:00:03;;;;;;;9.60;7.70;;;;;;;;;;102030;1342;39473;-49
2023/01/11 01:02:37;;;;;;;9.80;8.00;;;;;;;;;;102039;1343;41172;-49
2023/01/11 01:05:12;;;;;;;9.40;7.80;;;;;;;;;;102195;1337;44433;-46
2023/01/11 01:07:47;;;;;;;8.80;7.40;;;;;;;;;;102403;1337;42735;-46
2023/01/11 01:10:22;;;;;;;9.70;7.80;;;;;;;;;;102364;1337;39536;-47
2023/01/11 01:15:47;;;;;;;9.00;7.70;;;;;;;;;;102101;1343;44287;-47
2023/01/11 01:18:21;;;;;;;10.00;8.30;;;;;;;;;;101909;1342;175877;-46
2023/01/11 01:20:55;;;;;;;9.60;7.80;;;;;;;;;;102040;1343;39633;-46
2023/01/11 01:23:29;;;;;;;9.20;7.50;;;;;;;;;;102046;1343;41334;-46
2023/01/11 01:26:06;;;;;;;9.00;7.70;;;;;;;;;;102246;1337;44320;-44
2023/01/11 01:28:40;;;;;;;8.90;7.40;;;;;;;;;;102408;1337;43055;-45
2023/01/11 01:31:14;;;;;;;9.40;7.60;;;;;;;;;;102357;1337;40720;-46
2023/01/11 01:33:51;;;;;;;8.70;7.60;;;;;;;;;;102395;1337;41020;-47
2023/01/11 01:36:26;;;;;;;8.60;7.30;;;;;;;;;;102061;1344;44131;-49
2023/01/11 01:39:00;;;;;;;9.40;7.60;;;;;;;;;;102062;1343;42789;-49
2023/01/11 01:41:35;;;;;;;9.20;7.60;;;;;;;;;;102072;1343;39603;-52
2023/01/11 01:44:57;;;;;;;9.10;7.60;;;;;;;;;;102076;1343;42520;-46
2023/01/11 01:47:38;;;;;;;8.60;7.10;;;;;;;;;;102459;1337;52078;-45
2023/01/11 01:50:18;;;;;;;8.80;7.40;;;;;;;;;;102377;1337;42682;-46
2023/01/11 01:52:55;;;;;;;8.40;6.80;;;;;;;;;;102395;1337;39342;-47
2023/01/11 01:55:34;;;;;;;8.70;7.10;;;;;;;;;;102292;1337;40731;-45
2023/01/11 01:58:13;;;;;;;8.40;7.00;;;;;;;;;;102044;1343;44123;-46
2023/01/11 02:00:49;;;;;;;9.90;7.50;;;;;;;;;;102046;1342;43068;-45
2023/01/11 02:03:27;;;;;;;8.90;7.30;;;;;;;;;;101838;1342;323981;-46
2023/01/11 02:06:01;;;;;;;9.30;7.20;;;;;;;;;;102040;1343;41063;-45
2023/01/11 02:08:40;;;;;;;9.10;7.40;;;;;;;;;;102053;1343;44031;-46
2023/01/11 02:11:31;;;;;;;8.50;7.10;;;;;;;;;;102073;1343;42845;-46
2023/01/11 02:14:09;;;;;;;9.20;7.30;;;;;;;;;;102043;1343;40771;-45
2023/01/11 02:16:43;;;;;;;8.90;7.10;;;;;;;;;;102181;1337;42499;-45
2023/01/11 02:19:33;;;;;;;8.70;7.20;;;;;;;;;;102351;1337;44116;-46
2023/01/11 02:22:38;;;;;;;9.10;7.30;;;;;;;;;;102369;1337;42995;-50
2023/01/11 02:25:45;;;;;;;8.90;7.00;;;;;;;;;;102373;1337;40700;-46
2023/01/11 02:28:24;;;;;;;8.60;7.10;;;;;;;;;;102140;1341;40976;-46
2023/01/11 02:31:09;;;;;;;8.60;7.00;;;;;;;;;;102056;1344;46194;-45
2023/01/11 02:33:50;;;;;;;8.60;6.90;;;;;;;;;;102039;1341;43434;-45
2023/01/11 02:36:33;;;;;;;9.10;7.10;;;;;;;;;;102072;1337;39296;-46
2023/01/11 02:39:21;;;;;;;8.90;6.90;;;;;;;;;;102413;1337;42527;-46
2023/01/11 02:45:04;;;;;;;8.30;6.80;;;;;;;;;;102382;1337;42864;-47
2023/01/11 02:47:49;;;;;;;8.80;7.10;;;;;;;;;;102167;1340;39435;-46
2023/01/11 02:50:31;;;;;;;8.60;7.10;;;;;;;;;;102056;1342;41253;-45
2023/01/11 02:53:17;;;;;;;8.40;6.90;;;;;;;;;;102030;1343;43954;-45
2023/01/11 02:55:58;;;;;;;8.40;6.90;;;;;;;;;;102039;1343;42756;-45
2023/01/11 02:58:38;;;;;;;8.60;7.20;;;;;;;;;;102299;1337;40648;-46
2023/01/11 03:01:13;;;;;;;8.60;7.20;;;;;;;;;;102353;1337;41045;-45
2023/01/11 03:03:47;;;;;;;8.30;6.80;;;;;;;;;;102364;1337;44180;-46
2023/01/11 03:06:24;;;;;;;8.60;7.20;;;;;;;;;;102345;1337;42914;-45
2023/01/11 03:09:21;;;;;;;8.80;7.00;;;;;;;;;;102044;1341;39404;-45
2023/01/11 03:15:34;;;;;;;9.20;7.20;;;;;;;;;;102034;1343;44222;-46
2023/01/11 03:18:28;;;;;;;8.40;6.90;;;;;;;;;;102181;1337;43399;-45
2023/01/11 03:21:17;;;;;;;8.30;6.50;;;;;;;;;;102378;1337;39332;-46
2023/01/11 03:24:05;;;;;;;8.90;7.40;;;;;;;;;;102282;1337;195885;-46
2023/01/11 03:26:53;;;;;;;9.10;7.40;;;;;;;;;;102385;1337;44024;-46
2023/01/11 03:29:35;;;;;;;8.90;7.10;;;;;;;;;;102011;1341;42866;-45
2023/01/11 03:32:22;;;;;;;8.30;6.90;;;;;;;;;;102037;1342;39391;-46
2023/01/11 03:35:09;;;;;;;9.10;7.20;;;;;;;;;;102059;1344;41178;-47
2023/01/11 03:37:48;;;;;;;9.20;7.30;;;;;;;;;;102072;1337;44174;-45
2023/01/11 03:40:27;;;;;;;9.30;7.20;;;;;;;;;;102385;1337;44020;-46
2023/01/11 03:43:13;;;;;;;8.80;7.40;;;;;;;;;;102366;1337;39382;-45
2023/01/11 03:45:55;;;;;;;8.40;7.20;;;;;;;;;;102371;1337;43254;-50
2023/01/11 03:48:35;;;;;;;8.80;7.20;;;;;;;;;;102204;1337;44470;-46
2023/01/11 03:51:14;;;;;;;8.60;7.20;;;;;;;;;;102049;1343;43834;-46
2023/01/11 03:53:51;;;;;;;8.50;7.10;;;;;;;;;;102049;1343;40656;-48
2023/01/11 03:56:32;;;;;;;8.40;7.20;;;;;;;;;;102082;1342;40959;-47
2023/01/11 03:59:07;;;;;;;8.70;7.30;;;;;;;;;;102017;1342;44158;-46
2023/01/11 04:01:41;;;;;;;8.60;7.20;;;;;;;;;;102066;1347;42437;-48
2023/01/11 04:04:15;;;;;;;8.70;7.00;;;;;;;;;;102065;1342;39308;-46
2023/01/11 04:06:49;;;;;;;8.50;7.00;;;;;;;;;;102046;1341;40837;-45
2023/01/11 04:09:23;;;;;;;8.70;7.20;;;;;;;;;;102216;1337;44410;-48
2023/01/11 04:11:57;;;;;;;8.50;7.20;;;;;;;;;;102369;1337;42698;-46
2023/01/11 04:14:31;;;;;;;8.20;7.00;;;;;;;;;;102363;1338;39344;-48
2023/01/11 04:17:05;;;;;;;8.60;7.40;;;;;;;;;;102369;1337;42263;-48
2023/01/11 04:19:40;;;;;;;9.20;7.50;;;;;;;;;;102177;1343;45165;-49
2023/01/11 04:22:17;;;;;;;8.50;7.30;;;;;;;;;;102067;1343;43121;-46
2023/01/11 04:24:51;;;;;;;8.20;6.90;;;;;;;;;;102051;1342;40756;-45
2023/01/11 04:27:24;;;;;;;8.80;7.40;;;;;;;;;;102033;1343;42350;-45
2023/01/11 04:29:58;;;;;;;8.50;7.20;;;;;;;;;;102251;1337;44065;-46
2023/01/11 04:32:33;;;;;;;8.50;7.20;;;;;;;;;;102384;1337;42738;-45
2023/01/11 04:35:09;;;;;;;8.40;7.20;;;;;;;;;;102396;1337;39412;-46
2023/01/11 04:37:42;;;;;;;9.00;7.50;;;;;;;;;;102390;1337;40890;-47
2023/01/11 04:40:19;;;;;;;8.80;7.40;;;;;;;;;;102120;1342;44300;-45
2023/01/11 04:42:53;;;;;;;8.30;7.20;;;;;;;;;;102070;1343;43072;-46
2023/01/11 04:45:26;;;;;;;8.70;7.30;;;;;;;;;;102051;1342;39516;-46
2023/01/11 04:48:01;;;;;;;9.00;7.30;;;;;;;;;;102062;1343;42411;-46
2023/01/11 04:50:35;;;;;;;9.10;7.70;;;;;;;;;;102282;1337;44382;-45
2023/01/11 04:53:09;;;;;;;8.80;7.70;;;;;;;;;;102352;1337;43090;-46
2023/01/11 04:55:46;;;;;;;8.50;7.30;;;;;;;;;;102369;1337;39452;-46
2023/01/11 04:58:20;;;;;;;8.70;7.10;;;;;;;;;;102348;1337;42347;-46
2023/01/11 05:00:53;;;;;;;8.60;7.10;;;;;;;;;;102056;1343;44859;-46
2023/01/11 05:03:27;;;;;;;8.60;7.10;;;;;;;;;;102062;1343;45380;-46
2023/01/11 05:06:02;;;;;;;8.50;6.90;;;;;;;;;;101959;1343;175557;-46
2023/01/11 05:08:37;;;;;;;8.70;7.00;;;;;;;;;;102047;1342;44041;-46
2023/01/11 05:11:11;;;;;;;9.30;7.30;;;;;;;;;;102279;1337;44410;-46
2023/01/11 05:13:46;;;;;;;8.70;7.10;;;;;;;;;;102373;1337;42780;-47
2023/01/11 05:16:22;;;;;;;8.80;7.50;;;;;;;;;;102379;1337;39630;-48
2023/01/11 05:18:58;;;;;;;8.80;6.90;;;;;;;;;;102401;1337;40913;-47
2023/01/11 05:21:35;;;;;;;9.50;7.10;;;;;;;;;;101405;1340;894150;-46
2023/01/11 05:24:15;;;;;;;8.90;7.00;;;;;;;;;;102096;1342;44057;-46
2023/01/11 05:26:51;;;;;;;9.00;7.10;;;;;;;;;;102060;1342;39422;-48
2023/01/11 05:29:26;;;;;;;8.30;6.60;;;;;;;;;;102048;1343;41516;-46
2023/01/11 05:32:00;;;;;;;9.00;6.90;;;;;;;;;;102321;1337;52093;-46
2023/01/11 05:34:37;;;;;;;8.70;6.90;;;;;;;;;;102384;1337;42647;-46
2023/01/11 05:37:12;;;;;;;8.50;7.10;;;;;;;;;;102370;1337;39407;-46
2023/01/11 05:39:46;;;;;;;8.80;6.70;;;;;;;;;;102344;1337;41331;-49
2023/01/11 05:42:20;;;;;;;8.60;6.70;;;;;;;;;;102021;1343;51063;-50
2023/01/11 05:47:46;;;;;;;8.20;6.10;;;;;;;;;;102056;1343;39731;-46
2023/01/11 05:50:22;;;;;;;8.60;6.70;;;;;;;;;;102076;1337;41433;-48
2023/01/11 05:52:56;;;;;;;8.00;6.60;;;;;;;;;;102333;1337;44354;-46
2023/01/11 05:55:30;;;;;;;8.20;6.40;;;;;;;;;;102376;1337;42964;-49
2023/01/11 05:58:07;;;;;;;8.00;6.30;;;;;;;;;;102370;1337;39410;-48
2023/01/11 06:00:41;;;;;;;8.20;6.40;;;;;;;;;;102280;1337;41793;-46
2023/01/11 06:03:15;;;;;;;8.30;6.40;;;;;;;;;;102046;1342;44403;-46
2023/01/11 06:05:50;;;;;;;8.50;6.60;;;;;;;;;;102042;1342;43616;-47
2023/01/11 06:08:24;;;;;;;7.20;6.20;;;;;;;;;;102040;1342;39655;-49
2023/01/11 06:11:00;;;;;;;8.10;6.20;;;;;;;;;;102041;1337;43521;-47
2023/01/11 06:13:34;;;;;;;8.20;6.20;;;;;;;;;;101739;1337;893673;-47
2023/01/11 06:16:12;;;;;;;9.00;6.00;;;;;;;;;;102360;1337;44195;-50
2023/01/11 06:18:48;;;;;;;7.70;5.80;;;;;;;;;;102414;1337;40842;-47
2023/01/11 06:21:23;;;;;;;7.90;6.10;;;;;;;;;;102257;1337;41425;-48
2023/01/11 06:24:00;;;;;;;7.60;5.90;;;;;;;;;;102033;1343;44912;-48
2023/01/11 06:26:34;;;;;;;7.50;6.00;;;;;;;;;;102026;1342;44201;-47
2023/01/11 06:29:08;;;;;;;8.10;6.10;;;;;;;;;;102041;1343;41147;-47
2023/01/11 06:31:43;;;;;;;7.70;5.70;;;;;;;;;;102116;1337;42629;-45
2023/01/11 06:34:17;;;;;;;7.30;5.70;;;;;;;;;;102349;1337;44649;-46
2023/01/11 06:36:51;;;;;;;7.80;6.10;;;;;;;;;;102392;1337;43224;-49
2023/01/11 06:39:28;;;;;;;7.60;5.90;;;;;;;;;;102381;1337;39652;-46
2023/01/11 06:42:04;;;;;;;7.60;5.80;;;;;;;;;;102077;1343;194906;-49
2023/01/11 06:44:38;;;;;;;7.40;5.50;;;;;;;;;;102069;1343;44861;-47
2023/01/11 06:47:14;;;;;;;7.60;5.60;;;;;;;;;;102050;1342;43074;-49
2023/01/11 06:49:49;;;;;;;8.10;6.00;;;;;;;;;;102059;1342;40841;-51
2023/01/11 06:52:23;;;;;;;7.70;5.70;;;;;;;;;;102120;1337;41496;-48
2023/01/11 06:54:57;;;;;;;8.40;6.30;;;;;;;;;;102381;1337;44619;-45
2023/01/11 06:57:32;;;;;;;7.50;5.70;;;;;;;;;;102367;1337;42908;-46
2023/01/11 07:00:10;;;;;;;7.30;5.40;;;;;;;;;;102350;1337;39744;-46
2023/01/11 07:02:44;;;;;;;7.60;5.50;;;;;;;;;;102177;1337;41292;-45
2023/01/11 07:05:20;;;;;;;7.50;5.50;;;;;;;;;;102047;1343;45599;-45
2023/01/11 07:07:54;;;;;;;7.90;6.00;;;;;;;;;;102089;1344;42905;-47
2023/01/11 07:10:29;;;;;;;7.50;5.60;;;;;;;;;;102070;1344;39631;-48
2023/01/11 07:13:04;;;;;;;7.50;5.40;;;;;;;;;;102197;1337;41309;-46
2023/01/11 07:15:38;;;;;;;7.50;5.50;;;;;;;;;;102334;1337;44821;-47
2023/01/11 07:18:13;;;;;;;7.70;5.50;;;;;;;;;;102338;1337;43195;-45
2023/01/11 07:20:48;;;;;;;8.30;5.90;;;;;;;;;;102354;1337;39499;-45
2023/01/11 07:23:22;;;;;;;7.20;5.40;;;;;;;;;;102145;1342;41042;-45
2023/01/11 07:25:56;;;;;;;7.60;5.70;;;;;;;;;;102044;1341;45649;-45
2023/01/11 07:28:30;;;;;;;7.70;5.60;;;;;;;;;;102062;1341;45464;-47
2023/01/11 07:31:04;;;;;;;7.60;5.70;;;;;;;;;;102054;1342;39403;-45
2023/01/11 07:33:38;;;;;;;7.70;5.60;;;;;;;;;;102223;1337;41522;-47
2023/01/11 07:36:13;;;;;;;7.80;5.80;;;;;;;;;;102360;1337;44493;-50
2023/01/11 07:38:48;;;;;;;7.10;5.40;;;;;;;;;;101750;1337;892986;-50
2023/01/11 07:44:15;;;;;;;7.30;5.50;;;;;;;;;;102008;1337;175817;-46
2023/01/11 07:46:49;;;;;;;7.70;6.00;;;;;;;;;;102066;1343;46961;-46
2023/01/11 07:49:23;;;;;;;7.70;5.50;;;;;;;;;;102038;1343;44348;-47
2023/01/11 07:51:57;;;;;;;7.20;5.40;;;;;;;;;;102060;1343;40946;-50
2023/01/11 07:54:31;;;;;;;8.30;5.50;;;;;;;;;;102258;1337;41158;-50
2023/01/11 07:57:05;;;;;;;8.60;6.00;;;;;;;;;;102284;1337;197596;-48
2023/01/11 07:59:39;;;;;;;8.80;6.10;;;;;;;;;;102351;1337;44065;-50
2023/01/11 08:02:15;;;;;;;9.40;6.30;;;;;;;;;;102285;1337;40812;-50
2023/01/11 08:04:49;;;;;;;7.60;5.60;;;;;;;;;;102078;1340;42644;-47
2023/01/11 08:07:23;;;;;;;8.60;5.80;;;;;;;;;;102047;1343;44734;-47
2023/01/11 08:09:58;;;;;;;8.60;5.90;;;;;;;;;;102059;1343;44041;-49
2023/01/11 08:15:24;;;;;;;8.30;5.50;;;;;;;;;;102008;1343;46872;-50
2023/01/11 08:18:03;;;;;;;8.40;5.90;;;;;;;;;;102034;1343;45688;-50
2023/01/11 08:20:39;;;;;;;9.10;6.00;;;;;;;;;;102048;1344;44295;-50
2023/01/11 08:23:13;;;;;;;8.40;5.90;;;;;;;;;;102017;1344;39774;-49
2023/01/11 08:25:47;;;;;;;8.70;5.80;;;;;;;;;;102064;1341;42561;-50
2023/01/11 08:28:21;;;;;;;8.90;6.20;;;;;;;;;;102048;1343;44280;-46
2023/01/11 08:30:55;;;;;;;8.30;5.60;;;;;;;;;;102078;1341;44252;-50
2023/01/11 08:33:29;;;;;;;8.80;5.80;;;;;;;;;;102020;1343;40920;-50
2023/01/11 08:36:09;;;;;;;8.10;5.50;;;;;;;;;;102390;1337;47825;-46
2023/01/11 08:38:43;;;;;;;9.80;6.20;;;;;;;;;;102380;1337;44283;-49
2023/01/11 08:41:17;;;;;;;8.20;5.80;;;;;;;;;;102379;1337;44123;-46
2023/01/11 08:43:52;;;;;;;8.90;6.00;;;;;;;;;;102312;1337;39788;-46
2023/01/11 08:46:26;;;;;;;8.50;5.90;;;;;;;;;;102029;1342;41218;-46
2023/01/11 08:49:01;;;;;;;8.50;5.70;;;;;;;;;;102056;1342;44488;-46
2023/01/11 08:51:35;;;;;;;8.50;5.80;;;;;;;;;;102044;1343;42879;-46
2023/01/11 08:54:12;;;;;;;8.20;5.40;;;;;;;;;;102043;1337;39798;-47
2023/01/11 08:56:47;;;;;;;9.40;6.00;;;;;;;;;;102346;1337;41405;-46
2023/01/11 08:59:21;;;;;;;8.60;5.70;;;;;;;;;;102373;1337;44290;-46
2023/01/11 09:01:55;;;;;;;8.80;5.60;;;;;;;;;;102384;1337;43338;-46
2023/01/11 09:04:30;;;;;;;7.80;5.60;;;;;;;;;;102259;1337;40896;-46
2023/01/11 09:07:04;;;;;;;8.30;5.50;;;;;;;;;;102050;1342;41334;-49
2023/01/11 09:09:39;;;;;;;8.10;5.80;;;;;;;;;;102027;1343;44624;-47
2023/01/11 09:12:13;;;;;;;8.00;5.60;;;;;;;;;;102060;1343;43098;-46
2023/01/11 09:14:47;;;;;;;8.30;5.40;;;;;;;;;;102099;1337;39825;-46
2023/01/11 09:17:22;;;;;;;8.50;5.50;;;;;;;;;;102376;1337;41204;-46
2023/01/11 09:19:58;;;;;;;8.40;5.30;;;;;;;;;;102356;1337;44388;-46
2023/01/11 09:22:32;;;;;;;8.00;5.30;;;;;;;;;;102362;1337;42966;-45
2023/01/11 09:25:09;;;;;;;8.10;5.60;;;;;;;;;;102231;1337;39654;-47
2023/01/11 09:27:46;;;;;;;8.10;5.20;;;;;;;;;;102077;1343;41816;-45
2023/01/11 09:30:23;;;;;;;8.00;5.40;;;;;;;;;;102072;1343;44530;-42
2023/01/11 09:32:57;;;;;;;8.30;5.20;;;;;;;;;;102087;1343;43817;-41
2023/01/11 09:35:31;;;;;;;7.50;5.50;;;;;;;;;;102106;1337;39389;-41
2023/01/11 09:38:05;;;;;;;8.40;5.50;;;;;;;;;;102355;1337;41035;-39
2023/01/11 09:40:52;;;;;;;7.50;5.10;;;;;;;;;;102372;1337;43938;-43
2023/01/11 09:43:29;;;;;;;7.30;5.10;;;;;;;;;;102374;1337;45221;-45
2023/01/11 09:46:07;;;;;;;7.90;5.20;;;;;;;;;;102166;1343;39358;-46
2023/01/11 09:48:47;;;;;;;7.20;4.90;;;;;;;;;;102244;1336;42286;-45
2023/01/11 09:51:23;;;;;;;7.20;4.80;;;;;;;;;;102044;1343;43861;-44
2023/01/11 09:53:59;;;;;;;7.60;5.00;;;;;;;;;;101943;1342;175431;-45
2023/01/11 09:56:45;;;;;;;7.20;4.90;;;;;;;;;;102208;1337;39108;-40
2023/01/11 09:59:32;;;;;;;7.30;5.00;;;;;;;;;;102345;1337;42359;-40
2023/01/11 10:02:23;;;;;;;7.60;5.10;;;;;;;;;;102097;1337;332787;-43
2023/01/11 10:05:24;;;;;;;8.40;5.60;;;;;;;;;;102389;1337;42782;-43
2023/01/11 10:08:16;;;;;;;8.30;6.00;;;;;;;;;;101867;1343;47335;-48
2023/01/11 10:11:34;;;;;;;8.70;5.80;;;;;;;;;;101898;1343;42106;-44
2023/01/11 10:14:45;;;;;;;9.00;5.70;;;;;;;;;;101888;1344;44150;-40
2023/01/11 10:17:53;;;;;;;9.10;6.90;;;;;;;;;;102150;1339;42700;-43
2023/01/11 10:20:52;;;;;;;9.60;6.30;;;;;;;;;;102336;1337;39273;-42
2023/01/11 10:23:35;;;;;;;7.40;5.30;;;;;;;;;;102388;1337;40989;-41
2023/01/11 10:26:23;;;;;;;8.30;5.40;;;;;;;;;;102327;1337;43959;-49
2023/01/11 10:29:20;;;;;;;7.60;5.60;;;;;;;;;;102039;1342;51072;-45
2023/01/11 10:32:33;;;;;;;8.10;5.80;;;;;;;;;;102067;1343;39354;-43
2023/01/11 10:35:40;;;;;;;;;;;;;;;;;;102059;1344;40945;-41
2023/01/11 10:38:42;;;;;;;8.40;5.90;;;;;;;;;;102261;1337;44168;-43
2023/01/11 10:41:32;;;;;;;9.20;6.20;;;;;;;;;;102255;1339;42690;-45
2023/01/11 10:44:18;;;;;;;9.40;6.50;;;;;;;;;;102287;1339;40931;-44
2023/01/11 10:46:59;;;;;;;9.30;6.50;;;;;;;;;;102211;1340;40851;-44
2023/01/11 10:49:45;;;;;;;8.90;6.30;;;;;;;;;;101904;1344;50868;-47
2023/01/11 10:52:34;;;;;;;9.30;5.90;;;;;;;;;;101899;1344;42786;-50
2023/01/11 10:55:22;;;;;;;8.20;5.30;;;;;;;;;;101916;1343;39751;-46
2023/01/11 10:58:11;;;;;;;9.50;6.60;;;;;;;;;;101992;1337;40909;-43
2023/01/11 11:00:55;;;;;;;7.60;5.50;;;;;;;;;;102313;1337;44090;-43
2023/01/11 11:04:06;;;;;;;8.20;5.70;;;;;;;;;;102325;1337;44049;-43
2023/01/11 11:06:51;;;;;;;8.20;5.80;;;;;;;;;;102275;1340;39508;-45
2023/01/11 11:09:36;;;;;;;8.90;6.40;;;;;;;;;;101904;1340;40907;-45
2023/01/11 11:12:15;;;;;;;7.50;5.50;;;;;;;;;;101913;1344;43716;-43
2023/01/11 11:14:57;;;;;;;7.70;5.40;;;;;;;;;;101918;1344;45168;-47
2023/01/11 11:17:36;;;;;;;8.30;5.80;;;;;;;;;;101935;1344;39218;-43
2023/01/11 11:20:17;;;;;;;8.50;6.00;;;;;;;;;;101610;1340;892864;-48
2023/01/11 11:22:56;;;;;;;8.30;5.20;;;;;;;;;;102270;1339;43868;-44
2023/01/11 11:25:34;;;;;;;7.00;4.80;;;;;;;;;;102225;1340;42698;-44
2023/01/11 11:28:25;;;;;;;6.90;5.00;;;;;;;;;;102225;1340;39308;-46
2023/01/11 11:31:02;;;;;;;6.90;4.50;;;;;;;;;;101891;1343;48360;-45
2023/01/11 11:33:39;;;;;;;7.60;4.80;;;;;;;;;;101931;1344;44141;-44
2023/01/11 11:36:16;;;;;;;7.00;4.70;;;;;;;;;;101899;1343;42839;-44
2023/01/11 11:39:10;;;;;;;6.30;4.30;;;;;;;;;;101966;1337;39739;-46
2023/01/11 11:42:06;;;;;;;7.20;4.70;;;;;;;;;;102343;1337;41531;-46
2023/01/11 11:44:43;;;;;;;6.60;4.60;;;;;;;;;;102350;1337;44155;-45
2023/01/11 11:47:19;;;;;;;6.10;4.30;;;;;;;;;;102365;1337;45532;-46
2023/01/11 11:49:55;;;;;;;6.80;4.70;;;;;;;;;;102163;1344;39562;-46
2023/01/11 11:52:29;;;;;;;7.10;4.60;;;;;;;;;;102038;1343;41179;-46
2023/01/11 11:55:10;;;;;;;7.10;4.60;;;;;;;;;;102071;1343;44629;-48
2023/01/11 11:57:46;;;;;;;6.70;4.70;;;;;;;;;;102056;1342;42487;-50
2023/01/11 12:00:28;;;;;;;7.10;4.80;;;;;;;;;;102174;1337;39181;-44
2023/01/11 12:03:11;;;;;;;7.40;4.90;;;;;;;;;;102328;1337;42277;-44
2023/01/11 12:05:57;;;;;;;7.70;5.00;;;;;;;;;;102331;1337;44355;-45
2023/01/11 12:08:35;;;;;;;6.80;4.60;;;;;;;;;;102348;1337;42714;-45
2023/01/11 12:11:18;;;;;;;6.90;5.00;;;;;;;;;;102057;1341;39557;-41
2023/01/11 12:14:06;;;;;;;6.70;4.60;;;;;;;;;;102043;1343;41287;-41
2023/01/11 12:16:45;;;;;;;6.70;4.80;;;;;;;;;;102032;1342;44461;-44
2023/01/11 12:19:39;;;;;;;6.40;4.50;;;;;;;;;;102031;1341;43870;-43
2023/01/11 12:22:21;;;;;;;6.30;4.50;;;;;;;;;;101987;1341;46209;-40
2023/01/11 12:25:23;;;;;;;7.00;4.90;;;;;;;;;;102050;1343;41166;-43
2023/01/11 12:28:06;;;;;;;6.30;4.50;;;;;;;;;;102052;1341;45374;-46
2023/01/11 12:30:55;;;;;;;6.30;4.50;;;;;;;;;;101972;1351;42669;-39
2023/01/11 12:33:47;;;;;;;7.10;4.60;;;;;;;;;;101953;1342;192696;-41
2023/01/11 12:36:34;;;;;;;7.10;4.60;;;;;;;;;;102030;1342;41015;-43
2023/01/11 12:39:19;;;;;;;7.40;4.70;;;;;;;;;;102157;1337;44148;-41
2023/01/11 12:42:17;;;;;;;6.60;4.80;;;;;;;;;;102249;1337;42741;-40
2023/01/11 12:45:16;;;;;;;6.60;4.50;;;;;;;;;;102366;1337;39755;-46
2023/01/11 12:48:32;;;;;;;6.80;4.50;;;;;;;;;;102370;1338;41257;-42
2023/01/11 12:51:21;;;;;;;6.00;4.10;;;;;;;;;;102103;1337;175618;-44
2023/01/11 12:54:19;;;;;;;6.80;4.60;;;;;;;;;;102044;1342;42646;-44
2023/01/11 12:57:17;;;;;;;6.60;4.40;;;;;;;;;;102061;1342;39336;-45
2023/01/11 13:00:21;;;;;;;6.10;4.40;;;;;;;;;;102041;1343;42464;-42
2023/01/11 13:03:43;;;;;;;6.40;4.50;;;;;;;;;;101997;1343;44992;-47
2023/01/11 13:06:24;;;;;;;7.30;4.40;;;;;;;;;;102026;1344;42891;-41
2023/01/11 13:09:06;;;;;;;6.90;4.80;;;;;;;;;;102045;1342;39374;-42
2023/01/11 13:11:47;;;;;;;;;;;;;;;;;;102087;1352;41070;-43
2023/01/11 13:14:45;;;;;;;6.70;4.40;;;;;;;;;;102360;1337;43951;-41
2023/01/11 13:17:32;;;;;;;7.00;4.60;;;;;;;;;;102348;1337;43240;-45
2023/01/11 13:20:32;;;;;;;6.50;4.50;;;;;;;;;;102389;1337;39318;-47
2023/01/11 13:23:37;;;;;;;6.00;4.00;;;;;;;;;;101983;1342;41283;-42
2023/01/11 13:26:24;;;;;;;6.00;4.10;;;;;;;;;;102031;1342;45098;-41
2023/01/11 13:29:05;;;;;;;6.20;4.20;;;;;;;;;;102057;1343;42659;-41
2023/01/11 13:31:47;;;;;;;6.30;4.30;;;;;;;;;;102068;1337;40752;-41
2023/01/11 13:34:30;;;;;;;6.50;4.60;;;;;;;;;;102380;1337;42588;-40
2023/01/11 13:37:14;;;;;;;6.60;4.50;;;;;;;;;;102594;1337;30276;-46
2023/01/11 13:39:57;;;;;;;6.70;4.40;;;;;;;;;;102629;1337;29024;-42
2023/01/11 13:42:38;;;;;;;7.20;4.70;;;;;;;;;;102395;1337;28036;-41
2023/01/11 13:45:21;;;;;;;6.90;4.60;;;;;;;;;;102295;1337;31098;-41
2023/01/11 13:48:00;;;;;;;7.20;4.50;;;;;;;;;;102649;1336;30104;-43
2023/01/11 13:50:44;;;;;;;6.60;4.30;;;;;;;;;;102644;1337;29055;-42
2023/01/11 13:53:28;;;;;;;6.50;4.60;;;;;;;;;;102417;1337;28040;-42
2023/01/11 13:56:07;;;;;;;7.00;4.70;;;;;;;;;;102318;1337;41190;-44
2023/01/11 13:58:51;;;;;;;6.50;4.60;;;;;;;;;;102308;1337;44267;-43
2023/01/11 14:01:43;;;;;;;6.50;4.20;;;;;;;;;;102428;1337;42786;-42
2023/01/11 14:04:24;;;;;;;6.90;4.20;;;;;;;;;;102135;1340;33896;-41
2023/01/11 14:07:17;;;;;;;6.30;4.40;;;;;;;;;;101945;1343;175380;-40
2023/01/11 14:10:14;;;;;;;6.40;4.30;;;;;;;;;;101919;1339;46662;-42
2023/01/11 14:13:08;;;;;;;6.40;4.50;;;;;;;;;;102105;1337;43261;-42
2023/01/11 14:15:52;;;;;;;7.00;4.40;;;;;;;;;;102278;1337;39589;-44
2023/01/11 14:18:37;;;;;;;6.20;4.30;;;;;;;;;;102340;1337;41155;-45
2023/01/11 14:21:21;;;;;;;6.80;4.40;;;;;;;;;;101704;1337;893518;-41
2023/01/11 14:23:56;;;;;;;6.00;4.30;;;;;;;;;;102284;1344;45506;-41
2023/01/11 14:26:55;;;;;;;6.00;4.20;;;;;;;;;;102243;1343;39279;-43
2023/01/11 14:30:17;;;;;;;6.10;4.40;;;;;;;;;;101918;1342;41448;-40
2023/01/11 14:33:25;;;;;;;6.50;4.40;;;;;;;;;;102377;1337;44811;-39
2023/01/11 14:36:23;;;;;;;7.20;4.60;;;;;;;;;;101846;1337;43115;-44
2023/01/11 14:39:39;;;;;;;6.20;4.30;;;;;;;;;;102207;1336;39740;-45
2023/01/11 14:42:46;;;;;;;6.80;4.30;;;;;;;;;;101955;1343;42602;-43
2023/01/11 14:45:35;;;;;;;8.20;4.60;;;;;;;;;;102387;1337;49707;-46
2023/01/11 14:48:27;;;;;;;6.80;4.40;;;;;;;;;;102261;1336;42984;-39
2023/01/11 14:51:25;;;;;;;5.90;4.10;;;;;;;;;;102242;1343;39586;-44
2023/01/11 14:54:12;;;;;;;6.00;4.20;;;;;;;;;;102302;1337;31593;-40
2023/01/11 14:56:56;;;;;;;6.60;4.50;;;;;;;;;;102601;1337;30152;-40
2023/01/11 14:59:38;;;;;;;6.00;4.10;;;;;;;;;;102452;1337;28864;-43
2023/01/11 15:02:29;;;;;;;6.20;4.40;;;;;;;;;;102654;1337;28599;-44
2023/01/11 15:05:30;;;;;;;5.80;4.30;;;;;;;;;;102357;1337;30161;-43
2023/01/11 15:08:28;;;;;;;6.10;4.20;;;;;;;;;;102523;1344;175387;-42
2023/01/11 15:11:05;;;;;;;6.00;4.00;;;;;;;;;;102065;1344;29053;-43
2023/01/11 15:13:49;;;;;;;5.70;4.00;;;;;;;;;;102328;1337;28128;-44
2023/01/11 15:19:38;;;;;;;5.90;4.00;;;;;;;;;;102168;1342;30213;-43
2023/01/11 15:22:28;;;;;;;6.00;4.00;;;;;;;;;;102061;1343;29069;-44
2023/01/11 15:25:05;;;;;;;5.90;4.40;;;;;;;;;;102161;1343;28213;-40
2023/01/11 15:27:41;;;;;;;6.60;4.10;;;;;;;;;;102700;1336;29711;-42
2023/01/11 15:30:39;;;;;;;6.20;4.10;;;;;;;;;;102571;1344;30221;-42
2023/01/11 15:33:47;;;;;;;6.60;4.40;;;;;;;;;;102402;1337;28877;-43
2023/01/11 15:36:26;;;;;;;5.50;4.00;;;;;;;;;;102563;1336;29356;-43
2023/01/11 15:39:05;;;;;;;6.30;4.00;;;;;;;;;;102693;1337;29711;-43
2023/01/11 15:42:04;;;;;;;6.50;4.40;;;;;;;;;;102337;1337;30195;-43
2023/01/11 15:45:03;;;;;;;6.60;4.10;;;;;;;;;;102448;1336;28893;-43
2023/01/11 15:51:14;;;;;;;5.60;4.10;;;;;;;;;;99753;1375;550062;-43
2023/01/11 15:54:18;;;;;;;6.60;4.40;;;;;;;;;;102291;1343;30566;-44
2023/01/11 15:57:31;;;;;;;5.90;3.90;;;;;;;;;;102265;1350;28988;-44
2023/01/11 16:00:49;;;;;;;6.30;4.30;;;;;;;;;;102138;1347;27996;-42
2023/01/11 16:03:47;;;;;;;6.10;4.20;;;;;;;;;;101688;1344;334986;-42
2023/01/11 16:06:37;;;;;;;6.80;4.60;;;;;;;;;;102189;1344;30157;-42
2023/01/11 16:10:01;;;;;;;6.30;4.10;;;;;;;;;;102168;1344;28954;-41
2023/01/11 16:12:55;;;;;;;6.50;4.50;;;;;;;;;;102090;1342;34030;-42
2023/01/11 16:15:46;;;;;;;5.80;4.30;;;;;;;;;;102364;1340;29462;-43
2023/01/11 16:18:27;;;;;;;6.10;4.10;;;;;;;;;;102466;1340;29810;-40
2023/01/11 16:21:05;;;;;;;6.30;4.30;;;;;;;;;;102353;1340;28864;-40
2023/01/11 16:23:40;;;;;;;6.30;4.50;;;;;;;;;;102137;1347;27871;-42
2023/01/11 16:26:21;;;;;;;6.10;4.30;;;;;;;;;;102143;1344;30251;-42
2023/01/11 16:29:01;;;;;;;6.20;4.60;;;;;;;;;;102072;1344;175699;-40